IGO874 VECC-VICG
Flight info
| Callsign | IGO874 |
|---|---|
| Flight time | 2h 3m |
| Altitude | 36000 |
| Route | TEPAL2C TEPAL R460 LKN DCT ONOGI |
| Aircraft | A20N/M-SDE2E3FGHIRWXY/LB1 |
Departure
| Time | 2026-05-07 20:53 |
|---|---|
| Airport | Netaji Subhash Chandra Bose International Airport (VECC) |
Arrival
| Time | 2026-05-07 22:57 |
|---|---|
| Airport | Shaheed Bhagat Singh International Airport (VICG) |
| Time | Latitude | Longitude | Altitude | Speed | Heading |
|---|---|---|---|---|---|
| 2026-05-07 20:40 | 22.64125 | 88.44031 | 18 ft | 0 kts | 291° |
| 2026-05-07 20:45 | 22.64122 | 88.44038 | 28 ft | 2 kts | 289° |
| 2026-05-07 20:45 | 22.64117 | 88.44055 | 28 ft | 2 kts | 289° |
| 2026-05-07 20:46 | 22.64111 | 88.44072 | 28 ft | 2 kts | 288° |
| 2026-05-07 20:46 | 22.64106 | 88.44089 | 28 ft | 2 kts | 285° |
| 2026-05-07 20:46 | 22.64103 | 88.44106 | 28 ft | 2 kts | 277° |
| 2026-05-07 20:46 | 22.64103 | 88.44124 | 28 ft | 2 kts | 240° |
| 2026-05-07 20:47 | 22.64113 | 88.44133 | 28 ft | 1 kts | 185° |
| 2026-05-07 20:47 | 22.64115 | 88.44133 | 28 ft | 0 kts | 185° |
| 2026-05-07 20:48 | 22.64105 | 88.44132 | 28 ft | 3 kts | 185° |
| 2026-05-07 20:49 | 22.64072 | 88.44128 | 28 ft | 6 kts | 187° |
| 2026-05-07 20:49 | 22.64019 | 88.44124 | 28 ft | 9 kts | 176° |
| 2026-05-07 20:49 | 22.63956 | 88.44149 | 28 ft | 11 kts | 155° |
| 2026-05-07 20:49 | 22.63892 | 88.44190 | 28 ft | 9 kts | 150° |
| 2026-05-07 20:50 | 22.63828 | 88.44227 | 28 ft | 11 kts | 152° |
| 2026-05-07 20:50 | 22.63754 | 88.44275 | 28 ft | 13 kts | 127° |
| 2026-05-07 20:50 | 22.63759 | 88.44370 | 29 ft | 12 kts | 34° |
| 2026-05-07 20:50 | 22.63847 | 88.44385 | 29 ft | 14 kts | 7° |
| 2026-05-07 20:51 | 22.63949 | 88.44397 | 29 ft | 16 kts | 7° |
| 2026-05-07 20:51 | 22.64064 | 88.44412 | 29 ft | 18 kts | 6° |
| 2026-05-07 20:51 | 22.64190 | 88.44435 | 29 ft | 19 kts | 27° |
| 2026-05-07 20:51 | 22.64247 | 88.44540 | 28 ft | 16 kts | 65° |
| 2026-05-07 20:52 | 22.64292 | 88.44638 | 28 ft | 11 kts | 46° |
| 2026-05-07 20:52 | 22.64316 | 88.44648 | 28 ft | 0 kts | 9° |
| 2026-05-07 20:52 | 22.64398 | 88.44659 | 28 ft | 43 kts | 5° |
| 2026-05-07 20:52 | 22.64947 | 88.44721 | 27 ft | 112 kts | 6° |
| 2026-05-07 20:53 | 22.65894 | 88.44829 | 30 ft | 163 kts | 5° |
| 2026-05-07 20:53 | 22.67099 | 88.44978 | 414 ft | 176 kts | 7° |
| 2026-05-07 20:53 | 22.68291 | 88.45153 | 1132 ft | 173 kts | 7° |
| 2026-05-07 20:53 | 22.69452 | 88.45307 | 1994 ft | 166 kts | 6° |
| 2026-05-07 20:54 | 22.70671 | 88.45459 | 2370 ft | 189 kts | 6° |
| 2026-05-07 20:54 | 22.72048 | 88.45628 | 2794 ft | 208 kts | 6° |
| 2026-05-07 20:54 | 22.73567 | 88.45819 | 3161 ft | 232 kts | 6° |
| 2026-05-07 20:54 | 22.75242 | 88.45897 | 3574 ft | 252 kts | 349° |
| 2026-05-07 20:55 | 22.76922 | 88.45188 | 4053 ft | 268 kts | 330° |
| 2026-05-07 20:55 | 22.78539 | 88.44156 | 4879 ft | 271 kts | 327° |
| 2026-05-07 20:55 | 22.80142 | 88.43086 | 5821 ft | 270 kts | 327° |
| 2026-05-07 20:55 | 22.81746 | 88.42017 | 6715 ft | 270 kts | 327° |
| 2026-05-07 20:56 | 22.83347 | 88.40963 | 7570 ft | 271 kts | 327° |
| 2026-05-07 20:56 | 22.84968 | 88.39906 | 8442 ft | 272 kts | 327° |
| 2026-05-07 20:56 | 22.86593 | 88.38853 | 9324 ft | 272 kts | 327° |
| 2026-05-07 20:56 | 22.88221 | 88.37790 | 10134 ft | 275 kts | 325° |
| 2026-05-07 20:57 | 22.89769 | 88.36458 | 10437 ft | 296 kts | 314° |
| 2026-05-07 20:57 | 22.91118 | 88.34670 | 10644 ft | 318 kts | 304° |
| 2026-05-07 20:57 | 22.92389 | 88.32658 | 11178 ft | 326 kts | 304° |
| 2026-05-07 20:57 | 22.93690 | 88.30626 | 11910 ft | 330 kts | 304° |
| 2026-05-07 20:58 | 22.95012 | 88.28575 | 12622 ft | 334 kts | 304° |
| 2026-05-07 20:58 | 22.96352 | 88.26501 | 13336 ft | 338 kts | 304° |
| 2026-05-07 20:58 | 22.97708 | 88.24408 | 14004 ft | 341 kts | 303° |
| 2026-05-07 20:58 | 22.99079 | 88.22290 | 14670 ft | 344 kts | 303° |
| 2026-05-07 20:59 | 23.00458 | 88.20158 | 15313 ft | 347 kts | 303° |
| 2026-05-07 20:59 | 23.01849 | 88.18007 | 15956 ft | 350 kts | 302° |
| 2026-05-07 20:59 | 23.03253 | 88.15833 | 16570 ft | 353 kts | 302° |
| 2026-05-07 20:59 | 23.04650 | 88.13669 | 17199 ft | 356 kts | 302° |
| 2026-05-07 21:00 | 23.06095 | 88.11429 | 17800 ft | 359 kts | 301° |
| 2026-05-07 21:00 | 23.07516 | 88.09226 | 18347 ft | 363 kts | 301° |
| 2026-05-07 21:00 | 23.08965 | 88.06978 | 18894 ft | 364 kts | 301° |
| 2026-05-07 21:00 | 23.10441 | 88.04687 | 19437 ft | 367 kts | 301° |
| 2026-05-07 21:01 | 23.11888 | 88.02438 | 19958 ft | 369 kts | 301° |
| 2026-05-07 21:01 | 23.13362 | 88.00147 | 20486 ft | 371 kts | 301° |
| 2026-05-07 21:01 | 23.14844 | 87.97841 | 20999 ft | 374 kts | 300° |
| 2026-05-07 21:01 | 23.16337 | 87.95519 | 21521 ft | 376 kts | 300° |
| 2026-05-07 21:02 | 23.17839 | 87.93180 | 22034 ft | 378 kts | 300° |
| 2026-05-07 21:02 | 23.19350 | 87.90822 | 22527 ft | 381 kts | 299° |
| 2026-05-07 21:02 | 23.20807 | 87.88416 | 23018 ft | 382 kts | 298° |
| 2026-05-07 21:02 | 23.22239 | 87.85969 | 23505 ft | 384 kts | 297° |
| 2026-05-07 21:03 | 23.23670 | 87.83512 | 23887 ft | 387 kts | 297° |
| 2026-05-07 21:03 | 23.25125 | 87.81028 | 24263 ft | 390 kts | 297° |
| 2026-05-07 21:03 | 23.26595 | 87.78531 | 24627 ft | 393 kts | 297° |
| 2026-05-07 21:03 | 23.28077 | 87.76022 | 24997 ft | 396 kts | 297° |
| 2026-05-07 21:04 | 23.29573 | 87.73493 | 25349 ft | 399 kts | 297° |
| 2026-05-07 21:04 | 23.31079 | 87.70946 | 25694 ft | 401 kts | 296° |
| 2026-05-07 21:04 | 23.32585 | 87.68398 | 26050 ft | 404 kts | 296° |
| 2026-05-07 21:04 | 23.34116 | 87.65805 | 26380 ft | 407 kts | 296° |
| 2026-05-07 21:05 | 23.35653 | 87.63201 | 26707 ft | 409 kts | 296° |
| 2026-05-07 21:05 | 23.37194 | 87.60589 | 27041 ft | 411 kts | 296° |
| 2026-05-07 21:05 | 23.38741 | 87.57966 | 27351 ft | 414 kts | 295° |
| 2026-05-07 21:05 | 23.40299 | 87.55323 | 27671 ft | 416 kts | 295° |
| 2026-05-07 21:06 | 23.41864 | 87.52666 | 27973 ft | 418 kts | 295° |
| 2026-05-07 21:06 | 23.43435 | 87.49996 | 28256 ft | 420 kts | 295° |
| 2026-05-07 21:06 | 23.45018 | 87.47305 | 28535 ft | 422 kts | 295° |
| 2026-05-07 21:06 | 23.46606 | 87.44605 | 28830 ft | 424 kts | 294° |
| 2026-05-07 21:07 | 23.48203 | 87.41888 | 29098 ft | 427 kts | 294° |
| 2026-05-07 21:07 | 23.49805 | 87.39161 | 29372 ft | 428 kts | 294° |
| 2026-05-07 21:07 | 23.51414 | 87.36420 | 29640 ft | 430 kts | 294° |
| 2026-05-07 21:07 | 23.53031 | 87.33664 | 29904 ft | 432 kts | 294° |
| 2026-05-07 21:08 | 23.54650 | 87.30903 | 30139 ft | 434 kts | 294° |
| 2026-05-07 21:08 | 23.56278 | 87.28125 | 30396 ft | 435 kts | 294° |
| 2026-05-07 21:08 | 23.57906 | 87.25346 | 30652 ft | 436 kts | 294° |
| 2026-05-07 21:08 | 23.59540 | 87.22555 | 30901 ft | 437 kts | 294° |
| 2026-05-07 21:09 | 23.61171 | 87.19768 | 31202 ft | 436 kts | 294° |
| 2026-05-07 21:09 | 23.62802 | 87.16980 | 31543 ft | 435 kts | 294° |
| 2026-05-07 21:09 | 23.64422 | 87.14208 | 31881 ft | 433 kts | 295° |
| 2026-05-07 21:09 | 23.66036 | 87.11442 | 32210 ft | 432 kts | 295° |
| 2026-05-07 21:10 | 23.67624 | 87.08720 | 32523 ft | 430 kts | 295° |
| 2026-05-07 21:10 | 23.69226 | 87.05972 | 32838 ft | 428 kts | 295° |
| 2026-05-07 21:10 | 23.70819 | 87.03237 | 33143 ft | 427 kts | 295° |
| 2026-05-07 21:10 | 23.72408 | 87.00508 | 33436 ft | 426 kts | 295° |
| 2026-05-07 21:11 | 23.73994 | 86.97783 | 33707 ft | 424 kts | 295° |
| 2026-05-07 21:11 | 23.75575 | 86.95065 | 33961 ft | 423 kts | 295° |
| 2026-05-07 21:11 | 23.78618 | 86.89604 | 34382 ft | 416 kts | 289° |
| 2026-05-07 21:12 | 23.79687 | 86.86706 | 34562 ft | 409 kts | 281° |
| 2026-05-07 21:12 | 23.80350 | 86.83716 | 34745 ft | 403 kts | 274° |
| 2026-05-07 21:12 | 23.80618 | 86.80694 | 34914 ft | 398 kts | 267° |
| 2026-05-07 21:12 | 23.80649 | 86.77673 | 35079 ft | 398 kts | 267° |
| 2026-05-07 21:13 | 23.80692 | 86.74657 | 35251 ft | 398 kts | 268° |
| 2026-05-07 21:13 | 23.80742 | 86.71634 | 35429 ft | 397 kts | 268° |
| 2026-05-07 21:13 | 23.80792 | 86.68619 | 35612 ft | 397 kts | 268° |
| 2026-05-07 21:13 | 23.80841 | 86.65610 | 35791 ft | 397 kts | 268° |
| 2026-05-07 21:14 | 23.80888 | 86.62602 | 35910 ft | 397 kts | 268° |
| 2026-05-07 21:14 | 23.80934 | 86.59593 | 35914 ft | 395 kts | 268° |
| 2026-05-07 21:14 | 23.81023 | 86.53595 | 35924 ft | 395 kts | 268° |
| 2026-05-07 21:15 | 23.81248 | 86.47600 | 35922 ft | 398 kts | 274° |
| 2026-05-07 21:15 | 23.82379 | 86.42700 | 35918 ft | 405 kts | 285° |
| 2026-05-07 21:16 | 23.85085 | 86.37213 | 35930 ft | 417 kts | 298° |
| 2026-05-07 21:16 | 23.88396 | 86.32018 | 35933 ft | 417 kts | 297° |
| 2026-05-07 21:17 | 23.91691 | 86.26799 | 35942 ft | 417 kts | 297° |
| 2026-05-07 21:17 | 23.94982 | 86.21581 | 35935 ft | 416 kts | 297° |
| 2026-05-07 21:18 | 23.98260 | 86.16382 | 35930 ft | 414 kts | 297° |
| 2026-05-07 21:18 | 24.01526 | 86.11193 | 35933 ft | 415 kts | 297° |
| 2026-05-07 21:19 | 24.04792 | 86.05999 | 35933 ft | 414 kts | 297° |
| 2026-05-07 21:19 | 24.08054 | 86.00807 | 35935 ft | 414 kts | 297° |
| 2026-05-07 21:20 | 24.11312 | 85.95616 | 35934 ft | 413 kts | 297° |
| 2026-05-07 21:20 | 24.14564 | 85.90430 | 35935 ft | 413 kts | 297° |
| 2026-05-07 21:21 | 24.17812 | 85.85243 | 35935 ft | 413 kts | 297° |
| 2026-05-07 21:21 | 24.21055 | 85.80061 | 35935 ft | 412 kts | 297° |
| 2026-05-07 21:22 | 24.24295 | 85.74876 | 35936 ft | 412 kts | 297° |
| 2026-05-07 21:22 | 24.27531 | 85.69694 | 35932 ft | 412 kts | 297° |
| 2026-05-07 21:23 | 24.30762 | 85.64513 | 35928 ft | 412 kts | 297° |
| 2026-05-07 21:23 | 24.33974 | 85.59358 | 35925 ft | 411 kts | 297° |
| 2026-05-07 21:24 | 24.37217 | 85.54146 | 35924 ft | 411 kts | 297° |
| 2026-05-07 21:24 | 24.40438 | 85.48965 | 35917 ft | 411 kts | 297° |
| 2026-05-07 21:25 | 24.43636 | 85.43816 | 35916 ft | 411 kts | 297° |
| 2026-05-07 21:25 | 24.46871 | 85.38601 | 35907 ft | 410 kts | 297° |
| 2026-05-07 21:26 | 24.50062 | 85.33452 | 35903 ft | 410 kts | 297° |
| 2026-05-07 21:26 | 24.53291 | 85.28236 | 35897 ft | 411 kts | 297° |
| 2026-05-07 21:27 | 24.56480 | 85.23081 | 35890 ft | 411 kts | 297° |
| 2026-05-07 21:27 | 24.59685 | 85.17892 | 35883 ft | 411 kts | 297° |
| 2026-05-07 21:28 | 24.62895 | 85.12691 | 35879 ft | 411 kts | 297° |
| 2026-05-07 21:28 | 24.66100 | 85.07491 | 35877 ft | 411 kts | 297° |
| 2026-05-07 21:29 | 24.69311 | 85.02278 | 35876 ft | 412 kts | 297° |
| 2026-05-07 21:29 | 24.72508 | 84.97050 | 35878 ft | 411 kts | 295° |
| 2026-05-07 21:30 | 24.75146 | 84.91553 | 35876 ft | 404 kts | 287° |
| 2026-05-07 21:30 | 24.77170 | 84.85815 | 35878 ft | 402 kts | 285° |
| 2026-05-07 21:31 | 24.79187 | 84.80072 | 35880 ft | 403 kts | 285° |
| 2026-05-07 21:31 | 24.81204 | 84.74314 | 35880 ft | 403 kts | 285° |
| 2026-05-07 21:32 | 24.83202 | 84.68590 | 35880 ft | 404 kts | 285° |
| 2026-05-07 21:32 | 24.85227 | 84.62775 | 35873 ft | 404 kts | 285° |
| 2026-05-07 21:33 | 24.87238 | 84.56994 | 35879 ft | 404 kts | 285° |
| 2026-05-07 21:33 | 24.89247 | 84.51208 | 35877 ft | 405 kts | 285° |
| 2026-05-07 21:34 | 24.91254 | 84.45421 | 35874 ft | 405 kts | 285° |
| 2026-05-07 21:34 | 24.93262 | 84.39624 | 35870 ft | 405 kts | 285° |
| 2026-05-07 21:35 | 24.95265 | 84.33832 | 35877 ft | 405 kts | 285° |
| 2026-05-07 21:35 | 24.97268 | 84.28030 | 35874 ft | 405 kts | 285° |
| 2026-05-07 21:36 | 24.99266 | 84.22236 | 35873 ft | 405 kts | 285° |
| 2026-05-07 21:36 | 25.01265 | 84.16430 | 35870 ft | 405 kts | 286° |
| 2026-05-07 21:37 | 25.03259 | 84.10629 | 35869 ft | 405 kts | 286° |
| 2026-05-07 21:37 | 25.05249 | 84.04831 | 35869 ft | 404 kts | 286° |
| 2026-05-07 21:38 | 25.07237 | 83.99030 | 35868 ft | 404 kts | 286° |
| 2026-05-07 21:38 | 25.09221 | 83.93233 | 35868 ft | 404 kts | 286° |
| 2026-05-07 21:39 | 25.11189 | 83.87476 | 35867 ft | 404 kts | 286° |
| 2026-05-07 21:39 | 25.13167 | 83.81681 | 35863 ft | 403 kts | 286° |
| 2026-05-07 21:40 | 25.15142 | 83.75885 | 35860 ft | 403 kts | 286° |
| 2026-05-07 21:40 | 25.17112 | 83.70097 | 35859 ft | 403 kts | 286° |
| 2026-05-07 21:41 | 25.19082 | 83.64299 | 35856 ft | 403 kts | 286° |
| 2026-05-07 21:41 | 25.21046 | 83.58510 | 35855 ft | 403 kts | 286° |
| 2026-05-07 21:42 | 25.23008 | 83.52720 | 35854 ft | 403 kts | 286° |
| 2026-05-07 21:42 | 25.24969 | 83.46921 | 35848 ft | 403 kts | 287° |
| 2026-05-07 21:43 | 25.26926 | 83.41128 | 35845 ft | 403 kts | 287° |
| 2026-05-07 21:43 | 25.28883 | 83.35328 | 35848 ft | 403 kts | 287° |
| 2026-05-07 21:44 | 25.30838 | 83.29523 | 35847 ft | 403 kts | 287° |
| 2026-05-07 21:44 | 25.32791 | 83.23716 | 35846 ft | 403 kts | 287° |
| 2026-05-07 21:45 | 25.34745 | 83.17897 | 35849 ft | 404 kts | 287° |
| 2026-05-07 21:45 | 25.36696 | 83.12079 | 35853 ft | 404 kts | 287° |
| 2026-05-07 21:46 | 25.38319 | 83.07234 | 35853 ft | 404 kts | 287° |
| 2026-05-07 21:46 | 25.40599 | 83.00414 | 35854 ft | 405 kts | 287° |
| 2026-05-07 21:47 | 25.42550 | 82.94569 | 35858 ft | 405 kts | 287° |
| 2026-05-07 21:47 | 25.44567 | 82.88741 | 35860 ft | 407 kts | 291° |
| 2026-05-07 21:48 | 25.46814 | 82.84100 | 35860 ft | 411 kts | 298° |
| 2026-05-07 21:48 | 25.50740 | 82.78113 | 35859 ft | 414 kts | 302° |
| 2026-05-07 21:49 | 25.54194 | 82.73002 | 35859 ft | 415 kts | 302° |
| 2026-05-07 21:49 | 25.57651 | 82.67881 | 35860 ft | 415 kts | 302° |
| 2026-05-07 21:50 | 25.61109 | 82.62756 | 35862 ft | 415 kts | 302° |
| 2026-05-07 21:50 | 25.64560 | 82.57639 | 35865 ft | 415 kts | 302° |
| 2026-05-07 21:51 | 25.68019 | 82.52504 | 35862 ft | 415 kts | 302° |
| 2026-05-07 21:51 | 25.71469 | 82.47375 | 35867 ft | 415 kts | 302° |
| 2026-05-07 21:52 | 25.74920 | 82.42241 | 35871 ft | 415 kts | 302° |
| 2026-05-07 21:52 | 25.78365 | 82.37108 | 35869 ft | 414 kts | 302° |
| 2026-05-07 21:53 | 25.81803 | 82.31982 | 35864 ft | 414 kts | 302° |
| 2026-05-07 21:53 | 25.85242 | 82.26848 | 35859 ft | 414 kts | 302° |
| 2026-05-07 21:54 | 25.88652 | 82.21751 | 35864 ft | 414 kts | 302° |
| 2026-05-07 21:54 | 25.92079 | 82.16623 | 35854 ft | 413 kts | 302° |
| 2026-05-07 21:55 | 25.95498 | 82.11502 | 35858 ft | 413 kts | 302° |
| 2026-05-07 21:55 | 25.98916 | 82.06376 | 35858 ft | 412 kts | 302° |
| 2026-05-07 21:56 | 26.02329 | 82.01252 | 35857 ft | 412 kts | 302° |
| 2026-05-07 21:56 | 26.05733 | 81.96137 | 35857 ft | 412 kts | 302° |
| 2026-05-07 21:57 | 26.09138 | 81.91013 | 35854 ft | 412 kts | 302° |
| 2026-05-07 21:57 | 26.12541 | 81.85888 | 35854 ft | 411 kts | 302° |
| 2026-05-07 21:58 | 26.15939 | 81.80764 | 35851 ft | 411 kts | 303° |
| 2026-05-07 21:58 | 26.19334 | 81.75638 | 35851 ft | 412 kts | 303° |
| 2026-05-07 21:59 | 26.22730 | 81.70506 | 35851 ft | 412 kts | 303° |
| 2026-05-07 21:59 | 26.26125 | 81.65370 | 35853 ft | 412 kts | 303° |
| 2026-05-07 22:00 | 26.29521 | 81.60225 | 35855 ft | 412 kts | 303° |
| 2026-05-07 22:00 | 26.32917 | 81.55077 | 35860 ft | 412 kts | 303° |
| 2026-05-07 22:01 | 26.35739 | 81.50793 | 35861 ft | 412 kts | 303° |
| 2026-05-07 22:01 | 26.39133 | 81.45636 | 35862 ft | 413 kts | 303° |
| 2026-05-07 22:02 | 26.42528 | 81.40472 | 35861 ft | 413 kts | 303° |
| 2026-05-07 22:02 | 26.45920 | 81.35305 | 35868 ft | 413 kts | 303° |
| 2026-05-07 22:03 | 26.49309 | 81.30139 | 35867 ft | 412 kts | 303° |
| 2026-05-07 22:03 | 26.52694 | 81.24971 | 35856 ft | 411 kts | 303° |
| 2026-05-07 22:04 | 26.56058 | 81.19832 | 35861 ft | 411 kts | 303° |
| 2026-05-07 22:04 | 26.59434 | 81.14667 | 35859 ft | 411 kts | 303° |
| 2026-05-07 22:05 | 26.62803 | 81.09506 | 35855 ft | 411 kts | 303° |
| 2026-05-07 22:05 | 26.66175 | 81.04337 | 35857 ft | 411 kts | 303° |
| 2026-05-07 22:06 | 26.69542 | 80.99167 | 35860 ft | 412 kts | 303° |
| 2026-05-07 22:06 | 26.72911 | 80.93990 | 35857 ft | 412 kts | 303° |
| 2026-05-07 22:07 | 26.76530 | 80.89004 | 35861 ft | 415 kts | 310° |
| 2026-05-07 22:07 | 26.80795 | 80.84680 | 35864 ft | 417 kts | 315° |
| 2026-05-07 22:08 | 26.85182 | 80.80418 | 35862 ft | 417 kts | 315° |
| 2026-05-07 22:08 | 26.89571 | 80.76151 | 35854 ft | 418 kts | 315° |
| 2026-05-07 22:09 | 26.93957 | 80.71890 | 35852 ft | 417 kts | 315° |
| 2026-05-07 22:09 | 26.98344 | 80.67624 | 35855 ft | 417 kts | 315° |
| 2026-05-07 22:10 | 27.02729 | 80.63355 | 35853 ft | 417 kts | 315° |
| 2026-05-07 22:10 | 27.07110 | 80.59083 | 35855 ft | 417 kts | 315° |
| 2026-05-07 22:11 | 27.11491 | 80.54807 | 35852 ft | 417 kts | 315° |
| 2026-05-07 22:11 | 27.15871 | 80.50528 | 35850 ft | 417 kts | 315° |
| 2026-05-07 22:12 | 27.20247 | 80.46247 | 35847 ft | 417 kts | 315° |
| 2026-05-07 22:12 | 27.24587 | 80.41998 | 35846 ft | 417 kts | 315° |
| 2026-05-07 22:13 | 27.28955 | 80.37716 | 35844 ft | 417 kts | 315° |
| 2026-05-07 22:13 | 27.33326 | 80.33427 | 35849 ft | 417 kts | 315° |
| 2026-05-07 22:14 | 27.37692 | 80.29138 | 35846 ft | 417 kts | 315° |
| 2026-05-07 22:14 | 27.42061 | 80.24841 | 35844 ft | 417 kts | 315° |
| 2026-05-07 22:15 | 27.46425 | 80.20545 | 35842 ft | 417 kts | 315° |
| 2026-05-07 22:15 | 27.50789 | 80.16244 | 35840 ft | 417 kts | 315° |
| 2026-05-07 22:16 | 27.55155 | 80.11936 | 35841 ft | 417 kts | 315° |
| 2026-05-07 22:16 | 27.59520 | 80.07624 | 35844 ft | 417 kts | 315° |
| 2026-05-07 22:17 | 27.63885 | 80.03308 | 35843 ft | 417 kts | 315° |
| 2026-05-07 22:17 | 27.68252 | 79.98985 | 35846 ft | 418 kts | 316° |
| 2026-05-07 22:18 | 27.74800 | 79.92494 | 35846 ft | 418 kts | 316° |
| 2026-05-07 22:19 | 27.79168 | 79.88157 | 35848 ft | 418 kts | 316° |
| 2026-05-07 22:19 | 27.83535 | 79.83818 | 35850 ft | 418 kts | 316° |
| 2026-05-07 22:20 | 27.87907 | 79.79468 | 35844 ft | 418 kts | 316° |
| 2026-05-07 22:20 | 27.92275 | 79.75117 | 35851 ft | 419 kts | 316° |
| 2026-05-07 22:21 | 27.96646 | 79.70759 | 35847 ft | 419 kts | 316° |
| 2026-05-07 22:21 | 28.00987 | 79.66426 | 35850 ft | 419 kts | 316° |
| 2026-05-07 22:22 | 28.05387 | 79.62028 | 35849 ft | 419 kts | 316° |
| 2026-05-07 22:22 | 28.09724 | 79.57689 | 35848 ft | 419 kts | 316° |
| 2026-05-07 22:23 | 28.14091 | 79.53315 | 35847 ft | 419 kts | 316° |
| 2026-05-07 22:23 | 28.18453 | 79.48941 | 35849 ft | 419 kts | 316° |
| 2026-05-07 22:24 | 28.22822 | 79.44555 | 35846 ft | 419 kts | 316° |
| 2026-05-07 22:24 | 28.27179 | 79.40175 | 35846 ft | 419 kts | 316° |
| 2026-05-07 22:25 | 28.31546 | 79.35781 | 35845 ft | 419 kts | 316° |
| 2026-05-07 22:25 | 28.35889 | 79.31407 | 35843 ft | 419 kts | 316° |
| 2026-05-07 22:26 | 28.40243 | 79.27016 | 35845 ft | 419 kts | 316° |
| 2026-05-07 22:26 | 28.44601 | 79.22616 | 35843 ft | 419 kts | 316° |
| 2026-05-07 22:27 | 28.48957 | 79.18212 | 35843 ft | 419 kts | 316° |
| 2026-05-07 22:27 | 28.53311 | 79.13806 | 35848 ft | 419 kts | 316° |
| 2026-05-07 22:28 | 28.57662 | 79.09398 | 35850 ft | 419 kts | 316° |
| 2026-05-07 22:28 | 28.62013 | 79.04985 | 35851 ft | 419 kts | 316° |
| 2026-05-07 22:29 | 28.66331 | 79.00599 | 35849 ft | 419 kts | 316° |
| 2026-05-07 22:29 | 28.70671 | 78.96188 | 35851 ft | 419 kts | 316° |
| 2026-05-07 22:30 | 28.75016 | 78.91765 | 35852 ft | 419 kts | 316° |
| 2026-05-07 22:30 | 28.79359 | 78.87340 | 35853 ft | 418 kts | 316° |
| 2026-05-07 22:31 | 28.83697 | 78.82914 | 35852 ft | 418 kts | 316° |
| 2026-05-07 22:31 | 28.88033 | 78.78485 | 35854 ft | 418 kts | 316° |
| 2026-05-07 22:32 | 28.92364 | 78.74056 | 35855 ft | 418 kts | 316° |
| 2026-05-07 22:32 | 28.96694 | 78.69623 | 35851 ft | 418 kts | 316° |
| 2026-05-07 22:33 | 29.01027 | 78.65181 | 35840 ft | 419 kts | 316° |
| 2026-05-07 22:33 | 29.05368 | 78.60727 | 35847 ft | 419 kts | 316° |
| 2026-05-07 22:34 | 29.09709 | 78.56266 | 35703 ft | 421 kts | 316° |
| 2026-05-07 22:34 | 29.11886 | 78.54027 | 35467 ft | 421 kts | 316° |
| 2026-05-07 22:34 | 29.14063 | 78.51788 | 35250 ft | 422 kts | 316° |
| 2026-05-07 22:34 | 29.16248 | 78.49537 | 35005 ft | 423 kts | 316° |
| 2026-05-07 22:35 | 29.18436 | 78.47284 | 34776 ft | 424 kts | 316° |
| 2026-05-07 22:35 | 29.20629 | 78.45023 | 34550 ft | 425 kts | 316° |
| 2026-05-07 22:35 | 29.22823 | 78.42760 | 34324 ft | 426 kts | 317° |
| 2026-05-07 22:35 | 29.25028 | 78.40484 | 34086 ft | 427 kts | 317° |
| 2026-05-07 22:36 | 29.27235 | 78.38205 | 33867 ft | 428 kts | 317° |
| 2026-05-07 22:36 | 29.29448 | 78.35919 | 33607 ft | 429 kts | 317° |
| 2026-05-07 22:36 | 29.31670 | 78.33622 | 33352 ft | 431 kts | 317° |
| 2026-05-07 22:36 | 29.33906 | 78.31309 | 33095 ft | 433 kts | 317° |
| 2026-05-07 22:37 | 29.36143 | 78.28993 | 32835 ft | 435 kts | 317° |
| 2026-05-07 22:37 | 29.38395 | 78.26661 | 32569 ft | 437 kts | 317° |
| 2026-05-07 22:37 | 29.40659 | 78.24314 | 32236 ft | 440 kts | 317° |
| 2026-05-07 22:37 | 29.42937 | 78.21952 | 31881 ft | 442 kts | 317° |
| 2026-05-07 22:38 | 29.45228 | 78.19574 | 31455 ft | 445 kts | 317° |
| 2026-05-07 22:38 | 29.47529 | 78.17184 | 31024 ft | 449 kts | 317° |
| 2026-05-07 22:38 | 29.49855 | 78.14768 | 30597 ft | 452 kts | 317° |
| 2026-05-07 22:38 | 29.52185 | 78.12344 | 30179 ft | 453 kts | 317° |
| 2026-05-07 22:39 | 29.54518 | 78.09918 | 29735 ft | 452 kts | 317° |
| 2026-05-07 22:39 | 29.56837 | 78.07503 | 29235 ft | 448 kts | 317° |
| 2026-05-07 22:39 | 29.59138 | 78.05106 | 28747 ft | 443 kts | 317° |
| 2026-05-07 22:39 | 29.61408 | 78.02740 | 28275 ft | 439 kts | 317° |
| 2026-05-07 22:40 | 29.63632 | 78.00420 | 27815 ft | 435 kts | 317° |
| 2026-05-07 22:40 | 29.65865 | 77.98089 | 27350 ft | 433 kts | 317° |
| 2026-05-07 22:40 | 29.68071 | 77.95785 | 26907 ft | 430 kts | 317° |
| 2026-05-07 22:40 | 29.70303 | 77.93452 | 26457 ft | 427 kts | 317° |
| 2026-05-07 22:41 | 29.72453 | 77.91202 | 26023 ft | 424 kts | 317° |
| 2026-05-07 22:41 | 29.74628 | 77.88927 | 25592 ft | 420 kts | 317° |
| 2026-05-07 22:41 | 29.76779 | 77.86674 | 25166 ft | 417 kts | 317° |
| 2026-05-07 22:41 | 29.78919 | 77.84431 | 24748 ft | 415 kts | 317° |
| 2026-05-07 22:42 | 29.81046 | 77.82201 | 24325 ft | 413 kts | 317° |
| 2026-05-07 22:42 | 29.83165 | 77.79977 | 23927 ft | 411 kts | 317° |
| 2026-05-07 22:42 | 29.85269 | 77.77769 | 23524 ft | 409 kts | 318° |
| 2026-05-07 22:42 | 29.87366 | 77.75566 | 23066 ft | 406 kts | 318° |
| 2026-05-07 22:43 | 29.89446 | 77.73381 | 22591 ft | 404 kts | 318° |
| 2026-05-07 22:43 | 29.91511 | 77.71210 | 22120 ft | 401 kts | 318° |
| 2026-05-07 22:43 | 29.93566 | 77.69048 | 21665 ft | 398 kts | 318° |
| 2026-05-07 22:43 | 29.95605 | 77.66902 | 21209 ft | 396 kts | 318° |
| 2026-05-07 22:44 | 29.97633 | 77.64766 | 20770 ft | 393 kts | 318° |
| 2026-05-07 22:44 | 29.99646 | 77.62645 | 20333 ft | 391 kts | 318° |
| 2026-05-07 22:44 | 30.01645 | 77.60536 | 19907 ft | 388 kts | 318° |
| 2026-05-07 22:44 | 30.03635 | 77.58436 | 19441 ft | 386 kts | 318° |
| 2026-05-07 22:45 | 30.05610 | 77.56351 | 18993 ft | 383 kts | 318° |
| 2026-05-07 22:45 | 30.07565 | 77.54286 | 18520 ft | 379 kts | 318° |
| 2026-05-07 22:45 | 30.09507 | 77.52235 | 18056 ft | 379 kts | 318° |
| 2026-05-07 22:45 | 30.11445 | 77.50185 | 17536 ft | 375 kts | 317° |
| 2026-05-07 22:46 | 30.13357 | 77.48163 | 17029 ft | 370 kts | 317° |
| 2026-05-07 22:46 | 30.15219 | 77.46192 | 16536 ft | 366 kts | 317° |
| 2026-05-07 22:46 | 30.17110 | 77.44188 | 16038 ft | 362 kts | 317° |
| 2026-05-07 22:46 | 30.18955 | 77.42234 | 15554 ft | 358 kts | 317° |
| 2026-05-07 22:47 | 30.20777 | 77.40302 | 15080 ft | 354 kts | 317° |
| 2026-05-07 22:47 | 30.22582 | 77.38387 | 14609 ft | 350 kts | 317° |
| 2026-05-07 22:47 | 30.23762 | 77.37134 | 14301 ft | 348 kts | 317° |
| 2026-05-07 22:47 | 30.26137 | 77.34614 | 13689 ft | 344 kts | 317° |
| 2026-05-07 22:48 | 30.27300 | 77.33379 | 13350 ft | 341 kts | 317° |
| 2026-05-07 22:48 | 30.29023 | 77.31549 | 12847 ft | 338 kts | 317° |
| 2026-05-07 22:48 | 30.30753 | 77.29710 | 12356 ft | 338 kts | 317° |
| 2026-05-07 22:48 | 30.32482 | 77.27872 | 11865 ft | 336 kts | 317° |
| 2026-05-07 22:49 | 30.34197 | 77.26047 | 11374 ft | 333 kts | 317° |
| 2026-05-07 22:49 | 30.35894 | 77.24241 | 10895 ft | 330 kts | 317° |
| 2026-05-07 22:49 | 30.37585 | 77.22440 | 10432 ft | 330 kts | 317° |
| 2026-05-07 22:49 | 30.39267 | 77.20648 | 10122 ft | 327 kts | 317° |
| 2026-05-07 22:50 | 30.40864 | 77.18819 | 9883 ft | 317 kts | 314° |
| 2026-05-07 22:50 | 30.42353 | 77.17021 | 9633 ft | 300 kts | 315° |
| 2026-05-07 22:50 | 30.43778 | 77.15335 | 9254 ft | 288 kts | 315° |
| 2026-05-07 22:50 | 30.45162 | 77.13702 | 8826 ft | 280 kts | 315° |
| 2026-05-07 22:51 | 30.46521 | 77.12096 | 8401 ft | 280 kts | 315° |
| 2026-05-07 22:51 | 30.47886 | 77.10478 | 7985 ft | 281 kts | 315° |
| 2026-05-07 22:51 | 30.49245 | 77.08861 | 7575 ft | 279 kts | 314° |
| 2026-05-07 22:51 | 30.50608 | 77.07239 | 7180 ft | 282 kts | 314° |
| 2026-05-07 22:52 | 30.51975 | 77.05611 | 6779 ft | 283 kts | 314° |
| 2026-05-07 22:52 | 30.53349 | 77.03974 | 6381 ft | 282 kts | 314° |
| 2026-05-07 22:52 | 30.54708 | 77.02353 | 5947 ft | 277 kts | 314° |
| 2026-05-07 22:52 | 30.56039 | 77.00766 | 5463 ft | 273 kts | 314° |
| 2026-05-07 22:53 | 30.57357 | 76.99192 | 4968 ft | 270 kts | 314° |
| 2026-05-07 22:53 | 30.58645 | 76.97655 | 4504 ft | 271 kts | 314° |
| 2026-05-07 22:53 | 30.59951 | 76.96087 | 4002 ft | 265 kts | 312° |
| 2026-05-07 22:53 | 30.61021 | 76.94392 | 3629 ft | 254 kts | 300° |
| 2026-05-07 22:54 | 30.61821 | 76.92641 | 3299 ft | 238 kts | 295° |
| 2026-05-07 22:54 | 30.62483 | 76.90972 | 3023 ft | 216 kts | 293° |
| 2026-05-07 22:54 | 30.63083 | 76.89476 | 2765 ft | 195 kts | 294° |
| 2026-05-07 22:54 | 30.63629 | 76.88101 | 2512 ft | 182 kts | 294° |
| 2026-05-07 22:55 | 30.64152 | 76.86808 | 2264 ft | 173 kts | 295° |
| 2026-05-07 22:55 | 30.64729 | 76.85606 | 2004 ft | 165 kts | 298° |
| 2026-05-07 22:55 | 30.65209 | 76.84438 | 1794 ft | 155 kts | 293° |
| 2026-05-07 22:55 | 30.65645 | 76.83275 | 1598 ft | 157 kts | 293° |
| 2026-05-07 22:56 | 30.66090 | 76.82108 | 1397 ft | 158 kts | 294° |
| 2026-05-07 22:56 | 30.66541 | 76.80969 | 1195 ft | 156 kts | 294° |
| 2026-05-07 22:56 | 30.66985 | 76.79813 | 1034 ft | 155 kts | 293° |
| 2026-05-07 22:56 | 30.67378 | 76.78796 | 1031 ft | 111 kts | 294° |
| 2026-05-07 22:57 | 30.67612 | 76.78193 | 1032 ft | 53 kts | 294° |
| 2026-05-07 22:57 | 30.67716 | 76.77925 | 1035 ft | 17 kts | 294° |
| 2026-05-07 22:57 | 30.67747 | 76.77827 | 1036 ft | 9 kts | 231° |
| 2026-05-07 22:57 | 30.67720 | 76.77849 | 1035 ft | 7 kts | 83° |
| 2026-05-07 22:58 | 30.67719 | 76.77911 | 1035 ft | 9 kts | 113° |
| 2026-05-07 22:58 | 30.67690 | 76.77993 | 1035 ft | 13 kts | 115° |
| 2026-05-07 22:58 | 30.67646 | 76.78103 | 1033 ft | 18 kts | 114° |
| 2026-05-07 22:58 | 30.67591 | 76.78248 | 1033 ft | 20 kts | 115° |
| 2026-05-07 22:59 | 30.67572 | 76.78368 | 1033 ft | 14 kts | 60° |
| 2026-05-07 22:59 | 30.67642 | 76.78406 | 1033 ft | 11 kts | 26° |
| 2026-05-07 22:59 | 30.67717 | 76.78447 | 1032 ft | 13 kts | 24° |
| 2026-05-07 22:59 | 30.67781 | 76.78415 | 1033 ft | 12 kts | 295° |
| 2026-05-07 23:00 | 30.67809 | 76.78360 | 1033 ft | 1 kts | 324° |
| 2026-05-07 23:00 | 30.67821 | 76.78356 | 1033 ft | 3 kts | 344° |
| 2026-05-07 23:00 | 30.67856 | 76.78366 | 1033 ft | 5 kts | 22° |
| 2026-05-07 23:00 | 30.67875 | 76.78374 | 1033 ft | 2 kts | 23° |
| 2026-05-07 23:01 | 30.67881 | 76.78377 | 1033 ft | 0 kts | 23° |